createdAt,value
2023-10-10T00:00:01.313Z,93898.28
2023-10-10T00:02:30.362Z,93886.16
2023-10-10T00:05:04.895Z,93883.13
2023-10-10T00:07:36.329Z,93896.66
2023-10-10T00:10:04.887Z,93889.66
2023-10-10T00:12:36.501Z,93881.50
2023-10-10T00:15:07.028Z,93883.63
2023-10-10T00:17:42.658Z,93885.69
2023-10-10T00:20:31.136Z,93875.28
2023-10-10T00:23:05.755Z,93868.03
2023-10-10T00:25:33.799Z,93871.56
2023-10-10T00:28:06.782Z,93856.88
2023-10-10T00:30:44.834Z,93865.25
2023-10-10T00:33:17.431Z,93860.19
2023-10-10T00:35:46.296Z,93864.53
2023-10-10T00:38:20.708Z,93858.31
2023-10-10T00:40:49.075Z,93865.91
2023-10-10T00:43:18.477Z,93852.91
2023-10-10T00:45:53.575Z,93861.47
2023-10-10T00:48:24.826Z,93854.28
2023-10-10T00:51:07.496Z,93859.53
2023-10-10T00:53:37.317Z,93853.72
2023-10-10T00:56:08.913Z,93855.09
2023-10-10T00:58:38.661Z,93844.91
2023-10-10T01:01:10.941Z,93850.16
2023-10-10T01:03:50.908Z,93858.94
2023-10-10T01:06:26.133Z,93854.28
2023-10-10T01:09:14.795Z,93850.31
2023-10-10T01:11:44.527Z,93852.81
2023-10-10T01:14:19.726Z,93846.19
2023-10-10T01:16:49.251Z,93845.22
2023-10-10T01:19:19.527Z,93835.75
2023-10-10T01:21:52.146Z,93836.16
2023-10-10T01:24:23.103Z,93833.28
2023-10-10T01:26:52.466Z,93828.09
2023-10-10T01:29:28.082Z,93828.66
2023-10-10T01:32:00.363Z,93829.91
2023-10-10T01:34:45.164Z,93832.41
2023-10-10T01:37:28.942Z,93836.03
2023-10-10T01:40:20.715Z,93846.88
2023-10-10T01:43:00.791Z,93846.91
2023-10-10T01:45:28.964Z,93847.09
2023-10-10T01:48:04.322Z,93838.31
2023-10-10T01:50:32.405Z,93853.16
2023-10-10T01:53:01.580Z,93845.78
2023-10-10T01:55:29.480Z,93852.09
2023-10-10T01:58:03.532Z,93848.22
2023-10-10T02:00:35.888Z,93856.41
2023-10-10T02:03:05.546Z,93848.31
2023-10-10T02:05:36.599Z,93844.16
2023-10-10T02:08:27.075Z,93841.66
2023-10-10T02:10:57.120Z,93830.53
2023-10-10T02:13:26.824Z,93834.78
2023-10-10T02:15:54.727Z,93838.75
2023-10-10T02:18:39.323Z,93847.00
2023-10-10T02:21:16.880Z,93842.38
2023-10-10T02:23:48.274Z,93841.06
2023-10-10T02:26:25.294Z,93822.66
2023-10-10T02:29:13.784Z,93839.53
2023-10-10T02:31:43.666Z,93852.78
2023-10-10T02:34:12.430Z,93841.06
2023-10-10T02:36:42.480Z,93833.50
2023-10-10T02:39:30.874Z,93825.66
2023-10-10T02:42:04.232Z,93833.63
2023-10-10T02:47:53.962Z,93822.03
2023-10-10T02:50:41.284Z,93824.75
2023-10-10T02:53:10.661Z,93820.81
2023-10-10T02:55:42.991Z,93821.88
2023-10-10T02:58:23.151Z,93823.81
2023-10-10T03:00:53.015Z,93827.28
2023-10-10T03:03:21.536Z,93835.63
2023-10-10T03:05:55.439Z,93822.78
2023-10-10T03:08:33.811Z,93821.69
2023-10-10T03:11:16.545Z,93827.88
2023-10-10T03:13:55.626Z,93821.16
2023-10-10T03:16:24.485Z,93830.03
2023-10-10T03:19:01.694Z,93829.47
2023-10-10T03:21:48.643Z,93824.13
2023-10-10T03:24:37.885Z,93819.56
2023-10-10T03:27:20.830Z,93824.38
2023-10-10T03:29:51.285Z,93823.56
2023-10-10T03:32:34.751Z,93823.03
2023-10-10T03:35:07.946Z,93830.81
2023-10-10T03:37:55.880Z,93837.53
2023-10-10T03:40:49.639Z,93827.03
2023-10-10T03:43:36.312Z,93845.56
2023-10-10T03:46:23.606Z,93844.25
2023-10-10T03:49:18.422Z,93844.78
2023-10-10T03:52:04.827Z,93853.63
2023-10-10T03:54:51.258Z,93848.78
2023-10-10T03:57:37.574Z,93854.16
2023-10-10T04:00:24.732Z,93845.28
2023-10-10T04:03:11.584Z,93847.44
2023-10-10T04:05:58.226Z,93849.88
2023-10-10T04:08:45.052Z,93854.97
2023-10-10T04:11:32.491Z,93861.16
2023-10-10T04:14:19.326Z,93856.59
2023-10-10T04:17:06.036Z,93863.53
2023-10-10T04:19:52.714Z,93860.56
2023-10-10T04:22:39.048Z,93859.19
2023-10-10T04:25:25.948Z,93854.38
2023-10-10T04:28:12.745Z,93852.47
2023-10-10T04:30:59.010Z,93851.41
2023-10-10T04:33:45.384Z,93862.69
2023-10-10T04:36:31.764Z,93859.72
2023-10-10T04:39:17.966Z,93843.44
2023-10-10T04:42:12.339Z,93852.84
2023-10-10T04:44:58.917Z,93859.28
2023-10-10T04:47:45.655Z,93864.38
2023-10-10T04:50:32.374Z,93851.22
2023-10-10T04:53:19.124Z,93849.59
2023-10-10T04:56:05.854Z,93841.81
2023-10-10T04:58:52.067Z,93853.06
2023-10-10T05:01:38.646Z,93851.16
2023-10-10T05:04:33.121Z,93863.47
2023-10-10T05:07:19.853Z,93867.78
2023-10-10T05:10:06.301Z,93864.53
2023-10-10T05:12:52.601Z,93867.19
2023-10-10T05:15:39.572Z,93872.31
2023-10-10T05:18:26.607Z,93878.47
2023-10-10T05:21:13.599Z,93877.13
2023-10-10T05:23:49.174Z,93879.03
2023-10-10T05:26:21.227Z,93891.38
2023-10-10T05:28:50.057Z,93888.97
2023-10-10T05:31:22.751Z,93902.66
2023-10-10T05:33:52.343Z,93893.22
2023-10-10T05:36:20.793Z,93899.97
2023-10-10T05:38:51.893Z,93908.84
2023-10-10T05:41:21.202Z,93912.34
2023-10-10T05:43:52.559Z,93897.84
2023-10-10T05:46:20.796Z,93921.72
2023-10-10T05:48:48.749Z,93918.25
2023-10-10T05:51:16.806Z,93912.31
2023-10-10T05:53:47.850Z,93897.78
2023-10-10T05:56:18.008Z,93901.03
2023-10-10T05:58:48.603Z,93893.22
2023-10-10T06:01:18.696Z,93895.88
2023-10-10T06:03:47.092Z,93901.25
2023-10-10T06:06:17.264Z,93902.06
2023-10-10T06:08:46.507Z,93900.16
2023-10-10T06:11:18.394Z,93897.75
2023-10-10T06:13:48.067Z,93912.47
2023-10-10T06:16:17.362Z,93913.00
2023-10-10T06:18:48.122Z,93907.38
2023-10-10T06:21:16.687Z,93914.28
2023-10-10T06:23:46.363Z,93923.19
2023-10-10T06:26:15.613Z,93910.72
2023-10-10T06:28:47.037Z,93918.44
2023-10-10T06:31:21.918Z,93925.63
2023-10-10T06:33:57.886Z,93922.47
2023-10-10T06:36:26.054Z,93922.03
2023-10-10T06:39:05.926Z,93927.09
2023-10-10T06:41:48.027Z,93924.84
2023-10-10T06:44:16.704Z,93917.06
2023-10-10T06:46:50.270Z,93920.81
2023-10-10T06:49:22.472Z,93925.09
2023-10-10T06:51:51.522Z,93928.53
2023-10-10T06:54:29.093Z,93901.94
2023-10-10T06:57:01.625Z,93921.59
2023-10-10T06:59:31.089Z,93924.28
2023-10-10T07:02:01.982Z,93935.81
2023-10-10T07:04:30.411Z,93932.31
2023-10-10T07:07:02.537Z,93938.28
2023-10-10T07:09:37.539Z,93932.59
2023-10-10T07:12:12.211Z,93928.72
2023-10-10T07:14:55.754Z,93934.06
2023-10-10T07:17:28.872Z,93935.84
2023-10-10T07:20:17.540Z,93930.16
2023-10-10T07:22:46.601Z,93932.44
2023-10-10T07:25:41.396Z,93933.03
2023-10-10T07:28:15.378Z,93925.16
2023-10-10T07:30:45.626Z,93921.97
2023-10-10T07:33:15.013Z,93933.16
2023-10-10T07:35:46.209Z,93946.53
2023-10-10T07:38:17.032Z,93924.16
2023-10-10T07:40:45.031Z,93940.75
2023-10-10T07:43:14.105Z,93925.22
2023-10-10T07:45:45.036Z,93936.25
2023-10-10T07:48:13.328Z,93946.44
2023-10-10T07:50:58.130Z,93945.75
2023-10-10T07:53:35.311Z,93949.53
2023-10-10T07:56:03.421Z,93955.69
2023-10-10T07:58:53.751Z,93948.91
2023-10-10T08:01:22.441Z,93967.03
2023-10-10T08:03:51.262Z,93968.09
2023-10-10T08:06:23.784Z,93964.69
2023-10-10T08:09:11.655Z,93962.84
2023-10-10T08:11:40.074Z,93965.56
2023-10-10T08:14:10.050Z,93961.44
2023-10-10T08:16:44.616Z,93960.53
2023-10-10T08:19:12.902Z,93958.81
2023-10-10T08:21:50.582Z,93959.91
2023-10-10T08:24:21.616Z,93960.44
2023-10-10T08:26:52.997Z,93953.44
2023-10-10T08:29:27.554Z,93954.97
2023-10-10T08:31:55.600Z,93965.88
2023-10-10T08:34:26.023Z,93961.00
2023-10-10T08:37:04.586Z,93963.69
2023-10-10T08:39:40.747Z,93965.31
2023-10-10T08:42:16.419Z,93971.47
2023-10-10T08:44:50.457Z,93965.47
2023-10-10T08:47:33.921Z,93963.44
2023-10-10T08:50:02.538Z,93965.44
2023-10-10T08:52:33.881Z,93969.00
2023-10-10T08:55:03.066Z,93947.56
2023-10-10T08:57:31.788Z,93953.34
2023-10-10T09:00:00.739Z,93956.34
2023-10-10T09:02:35.204Z,93962.09
2023-10-10T09:05:05.662Z,93957.47
2023-10-10T09:07:34.126Z,93958.09
2023-10-10T09:10:15.439Z,93958.13
2023-10-10T09:12:54.698Z,93963.38
2023-10-10T09:15:23.849Z,93956.63
2023-10-10T09:18:00.030Z,93957.59
2023-10-10T09:20:33.782Z,93960.81
2023-10-10T09:23:13.528Z,93962.63
2023-10-10T09:25:49.860Z,93970.22
2023-10-10T09:28:18.294Z,93974.22
2023-10-10T09:31:13.801Z,93968.25
2023-10-10T09:33:47.115Z,93970.94
2023-10-10T09:36:21.187Z,93972.31
2023-10-10T09:38:55.900Z,93971.22
2023-10-10T09:41:33.122Z,93973.22
2023-10-10T09:44:40.883Z,93975.59
2023-10-10T09:47:10.476Z,93982.81
2023-10-10T09:49:53.235Z,93981.22
2023-10-10T09:52:41.956Z,93975.91
2023-10-10T09:55:15.214Z,93975.50
2023-10-10T09:58:00.148Z,93960.50
2023-10-10T10:00:34.681Z,93970.66
2023-10-10T10:03:24.231Z,93953.66
2023-10-10T10:06:30.143Z,93954.22
2023-10-10T10:09:19.263Z,93964.78
2023-10-10T10:12:21.258Z,93955.47
2023-10-10T10:14:56.013Z,93955.94
2023-10-10T10:17:55.816Z,93956.34
2023-10-10T10:20:51.591Z,93954.38
2023-10-10T10:23:27.620Z,93955.97
2023-10-10T10:26:28.353Z,93946.69
2023-10-10T10:28:59.520Z,93938.78
2023-10-10T10:31:38.510Z,93940.00
2023-10-10T10:34:17.909Z,93936.41
2023-10-10T10:36:55.683Z,93940.38
2023-10-10T10:39:36.210Z,93942.16
2023-10-10T10:42:17.151Z,93944.06
2023-10-10T10:44:46.444Z,93942.16
2023-10-10T10:47:36.740Z,93936.78
2023-10-10T10:50:29.035Z,93928.91
2023-10-10T10:53:05.948Z,93917.88
2023-10-10T10:55:41.108Z,93934.94
2023-10-10T10:58:35.372Z,93932.72
2023-10-10T11:01:18.018Z,93928.25
2023-10-10T11:03:46.592Z,93939.31
2023-10-10T11:06:15.928Z,93935.13
2023-10-10T11:11:26.809Z,93944.31
2023-10-10T11:14:21.179Z,93939.06
2023-10-10T11:16:57.881Z,93940.88
2023-10-10T11:19:30.492Z,93941.00
2023-10-10T11:22:06.886Z,93937.59
2023-10-10T11:24:36.160Z,93932.78
2023-10-10T11:27:13.057Z,93934.44
2023-10-10T11:29:52.408Z,93944.97
2023-10-10T11:32:26.415Z,93936.47
2023-10-10T11:35:13.274Z,93944.56
2023-10-10T11:37:45.539Z,93937.88
2023-10-10T11:40:21.146Z,93951.69
2023-10-10T11:42:51.049Z,93958.31
2023-10-10T11:45:27.645Z,93960.31
2023-10-10T11:48:06.789Z,93943.16
2023-10-10T11:50:58.727Z,93945.19
2023-10-10T11:53:29.170Z,93947.22
2023-10-10T11:56:12.852Z,93944.66
2023-10-10T11:58:40.978Z,93933.38
2023-10-10T12:01:09.546Z,93936.94
2023-10-10T12:03:41.645Z,93925.63
2023-10-10T12:06:21.239Z,93929.34
2023-10-10T12:08:50.538Z,93926.19
2023-10-10T12:11:23.881Z,93925.84
2023-10-10T12:13:53.973Z,93928.53
2023-10-10T12:16:25.928Z,93931.06
2023-10-10T12:18:55.581Z,93921.75
2023-10-10T12:21:25.120Z,93930.75
2023-10-10T12:24:00.504Z,93930.47
2023-10-10T12:26:31.235Z,93922.66
2023-10-10T12:28:59.814Z,93930.63
2023-10-10T12:31:28.233Z,93931.53
2023-10-10T12:33:56.185Z,93925.16
2023-10-10T12:36:30.589Z,93927.09
2023-10-10T12:39:06.152Z,93920.78
2023-10-10T12:41:47.921Z,93916.03
2023-10-10T12:44:16.573Z,93914.84
2023-10-10T12:46:44.746Z,93930.03
2023-10-10T12:49:13.224Z,93925.28
2023-10-10T12:51:46.345Z,93933.13
2023-10-10T12:54:18.651Z,93929.50
2023-10-10T12:57:12.917Z,93924.66
2023-10-10T12:59:41.126Z,93919.34
2023-10-10T13:02:15.219Z,93932.09
2023-10-10T13:04:48.232Z,93922.03
2023-10-10T13:07:19.606Z,93932.56
2023-10-10T13:09:48.273Z,93933.41
2023-10-10T13:12:29.119Z,93933.41
2023-10-10T13:15:17.527Z,93901.31
2023-10-10T13:17:52.049Z,93937.81
2023-10-10T13:20:24.808Z,93932.19
2023-10-10T13:22:52.993Z,93938.63
2023-10-10T13:25:21.794Z,93932.03
2023-10-10T13:27:53.970Z,93934.69
2023-10-10T13:30:22.169Z,93936.00
2023-10-10T13:32:50.312Z,93937.91
2023-10-10T13:35:21.699Z,93934.63
2023-10-10T13:38:10.175Z,93937.91
2023-10-10T13:40:50.690Z,93938.56
2023-10-10T13:43:19.251Z,93927.09
2023-10-10T13:45:52.621Z,93939.06
2023-10-10T13:48:23.734Z,93933.94
2023-10-10T13:50:57.607Z,93941.81
2023-10-10T13:53:25.748Z,93944.19
2023-10-10T13:55:53.730Z,93937.59
2023-10-10T13:58:21.807Z,93946.41
2023-10-10T14:00:57.431Z,93930.75
2023-10-10T14:03:36.828Z,93934.69
2023-10-10T14:06:05.765Z,93941.41
2023-10-10T14:08:34.404Z,93931.69
2023-10-10T14:11:03.328Z,93933.22
2023-10-10T14:13:31.770Z,93930.53
2023-10-10T14:15:59.826Z,93933.72
2023-10-10T14:18:44.889Z,93932.63
2023-10-10T14:21:13.637Z,93928.34
2023-10-10T14:23:42.009Z,93936.63
2023-10-10T14:26:14.550Z,93936.44
2023-10-10T14:28:51.550Z,93939.22
2023-10-10T14:31:24.755Z,93942.44
2023-10-10T14:33:53.075Z,93947.69
2023-10-10T14:36:22.338Z,93941.75
2023-10-10T14:38:51.796Z,93944.69
2023-10-10T14:41:26.853Z,93948.84
2023-10-10T14:43:56.043Z,93952.31
2023-10-10T14:46:28.830Z,93958.00
2023-10-10T14:49:16.263Z,93957.00
2023-10-10T14:51:52.006Z,93958.38
2023-10-10T14:54:20.967Z,93960.50
2023-10-10T14:56:51.595Z,93962.88
2023-10-10T14:59:26.218Z,93966.88
2023-10-10T15:01:54.587Z,93969.56
2023-10-10T15:04:23.103Z,93967.69
2023-10-10T15:06:55.979Z,93972.03
2023-10-10T15:09:28.204Z,93969.84
2023-10-10T15:12:01.454Z,93981.16
2023-10-10T15:14:33.830Z,93988.47
2023-10-10T15:17:06.414Z,93991.72
2023-10-10T15:19:35.504Z,93993.03
2023-10-10T15:22:04.398Z,93991.72
2023-10-10T15:24:34.625Z,93996.50
2023-10-10T15:27:02.880Z,93993.97
2023-10-10T15:29:34.382Z,93999.81
2023-10-10T15:32:05.001Z,93998.81
2023-10-10T15:34:33.295Z,94001.56
2023-10-10T15:37:13.395Z,94014.50
2023-10-10T15:39:43.036Z,94009.88
2023-10-10T15:42:12.801Z,94015.00
2023-10-10T15:44:42.934Z,94015.75
2023-10-10T15:47:11.775Z,94001.09
2023-10-10T15:49:40.770Z,94014.50
2023-10-10T15:52:09.485Z,94017.78
2023-10-10T15:54:37.660Z,94014.34
2023-10-10T15:57:07.584Z,94021.56
2023-10-10T15:59:37.256Z,94023.19
2023-10-10T16:02:11.274Z,94025.34
2023-10-10T16:04:44.254Z,94030.75
2023-10-10T16:07:13.053Z,94029.94
2023-10-10T16:09:41.364Z,94031.81
2023-10-10T16:12:14.219Z,94037.00
2023-10-10T16:14:42.766Z,94040.50
2023-10-10T16:17:17.729Z,94044.81
2023-10-10T16:19:46.688Z,94031.72
2023-10-10T16:22:15.049Z,94052.16
2023-10-10T16:24:43.475Z,94052.75
2023-10-10T16:27:11.583Z,94054.91
2023-10-10T16:29:39.875Z,94045.78
2023-10-10T16:32:09.923Z,94053.34
2023-10-10T16:34:43.990Z,94046.38
2023-10-10T16:37:15.850Z,94055.56
2023-10-10T16:39:46.773Z,94068.25
2023-10-10T16:42:25.110Z,94070.19
2023-10-10T16:44:55.089Z,94068.03
2023-10-10T16:47:24.236Z,94056.00
2023-10-10T16:49:52.780Z,94065.97
2023-10-10T16:52:21.661Z,94076.72
2023-10-10T16:54:53.492Z,94073.47
2023-10-10T16:57:26.087Z,94078.38
2023-10-10T16:59:58.149Z,94067.88
2023-10-10T17:02:30.488Z,94073.00
2023-10-10T17:05:06.428Z,94076.78
2023-10-10T17:07:35.185Z,94076.03
2023-10-10T17:10:07.473Z,94086.53
2023-10-10T17:12:36.390Z,94077.94
2023-10-10T17:15:06.438Z,94083.06
2023-10-10T17:17:37.248Z,94084.16
2023-10-10T17:20:06.635Z,94089.78
2023-10-10T17:22:35.392Z,94091.97
2023-10-10T17:25:04.702Z,94094.66
2023-10-10T17:27:35.163Z,94097.06
2023-10-10T17:30:06.128Z,94097.38
2023-10-10T17:32:35.077Z,94103.28
2023-10-10T17:35:06.695Z,94098.72
2023-10-10T17:37:36.379Z,94103.59
2023-10-10T17:40:12.133Z,94097.69
2023-10-10T17:42:45.683Z,94100.91
2023-10-10T17:45:14.564Z,94109.53
2023-10-10T17:47:43.252Z,94107.41
2023-10-10T17:50:13.090Z,94113.06
2023-10-10T17:52:44.894Z,94112.25
2023-10-10T17:55:15.228Z,94114.41
2023-10-10T17:57:44.327Z,94117.38
2023-10-10T18:00:15.741Z,94124.91
2023-10-10T18:02:48.309Z,94129.47
2023-10-10T18:05:18.207Z,94122.50
2023-10-10T18:07:47.000Z,94123.03
2023-10-10T18:10:16.040Z,94126.78
2023-10-10T18:12:45.110Z,94135.41
2023-10-10T18:15:14.197Z,94130.78
2023-10-10T18:17:43.860Z,94132.91
2023-10-10T18:20:21.002Z,94133.44
2023-10-10T18:22:53.428Z,94133.41
2023-10-10T18:25:25.168Z,94138.25
2023-10-10T18:27:54.754Z,94141.16
2023-10-10T18:30:24.048Z,94137.94
2023-10-10T18:32:53.256Z,94137.16
2023-10-10T18:35:28.438Z,94134.72
2023-10-10T18:37:57.513Z,94134.16
2023-10-10T18:40:27.552Z,94130.91
2023-10-10T18:42:56.916Z,94140.31
2023-10-10T18:45:27.446Z,94139.50
2023-10-10T18:47:56.446Z,94149.09
2023-10-10T18:50:25.036Z,94136.22
2023-10-10T18:52:55.669Z,94149.09
2023-10-10T18:55:31.240Z,94149.09
2023-10-10T18:58:08.112Z,94149.34
2023-10-10T19:00:38.112Z,94151.16
2023-10-10T19:03:08.814Z,94150.06
2023-10-10T19:05:37.946Z,94144.69
2023-10-10T19:08:07.096Z,94147.09
2023-10-10T19:10:39.802Z,94152.38
2023-10-10T19:13:10.749Z,94154.69
2023-10-10T19:15:39.544Z,94162.50
2023-10-10T19:18:08.775Z,94161.28
2023-10-10T19:20:38.488Z,94172.50
2023-10-10T19:23:17.936Z,94157.78
2023-10-10T19:25:49.428Z,94168.22
2023-10-10T19:28:18.569Z,94162.59
2023-10-10T19:30:47.487Z,94167.34
2023-10-10T19:33:16.769Z,94171.00
2023-10-10T19:35:45.865Z,94179.78
2023-10-10T19:38:15.137Z,94179.69
2023-10-10T19:40:45.575Z,94189.63
2023-10-10T19:43:14.577Z,94182.44
2023-10-10T19:45:43.513Z,94189.09
2023-10-10T19:48:17.234Z,94191.88
2023-10-10T19:50:49.118Z,94197.03
2023-10-10T19:53:18.341Z,94202.97
2023-10-10T19:55:50.941Z,94204.72
2023-10-10T19:58:22.516Z,94207.84
2023-10-10T20:00:51.360Z,94207.34
2023-10-10T20:03:23.775Z,94219.47
2023-10-10T20:05:54.297Z,94207.25
2023-10-10T20:08:22.969Z,94219.09
2023-10-10T20:10:52.279Z,94214.47
2023-10-10T20:13:22.282Z,94211.81
2023-10-10T20:15:54.228Z,94211.47
2023-10-10T20:18:22.909Z,94219.38
2023-10-10T20:20:53.496Z,94216.09
2023-10-10T20:23:24.115Z,94210.31
2023-10-10T20:25:52.624Z,94211.09
2023-10-10T20:28:20.843Z,94211.53
2023-10-10T20:30:49.113Z,94214.81
2023-10-10T20:33:17.862Z,94211.16
2023-10-10T20:35:47.170Z,94214.41
2023-10-10T20:38:21.169Z,94208.06
2023-10-10T20:40:49.458Z,94219.63
2023-10-10T20:43:17.607Z,94211.25
2023-10-10T20:45:45.632Z,94209.94
2023-10-10T20:48:23.289Z,94208.31
2023-10-10T20:50:51.663Z,94208.66
2023-10-10T20:53:21.129Z,94210.88
2023-10-10T20:55:51.298Z,94206.06
2023-10-10T20:58:20.173Z,94205.16
2023-10-10T21:00:48.111Z,94174.69
2023-10-10T21:03:16.699Z,94218.94
2023-10-10T21:05:44.871Z,94216.09
2023-10-10T21:08:13.250Z,94215.44
2023-10-10T21:10:41.887Z,94213.13
2023-10-10T21:13:09.923Z,94215.47
2023-10-10T21:15:38.007Z,94219.88
2023-10-10T21:18:09.522Z,94229.34
2023-10-10T21:20:56.557Z,94211.03
2023-10-10T21:23:28.593Z,94223.19
2023-10-10T21:25:56.662Z,94216.31
2023-10-10T21:28:25.902Z,94221.72
2023-10-10T21:30:54.173Z,94220.75
2023-10-10T21:33:22.542Z,94220.53
2023-10-10T21:35:51.135Z,94229.28
2023-10-10T21:38:25.223Z,94222.97
2023-10-10T21:41:03.429Z,94223.28
2023-10-10T21:43:31.882Z,94224.97
2023-10-10T21:45:59.869Z,94233.72
2023-10-10T21:48:28.012Z,94238.69
2023-10-10T21:50:59.498Z,94243.22
2023-10-10T21:53:29.901Z,94235.91
2023-10-10T21:56:01.053Z,94236.91
2023-10-10T21:58:29.240Z,94248.69
2023-10-10T22:00:57.148Z,94236.97
2023-10-10T22:03:26.950Z,94232.03
2023-10-10T22:05:55.166Z,94234.69
2023-10-10T22:08:27.279Z,94241.00
2023-10-10T22:11:01.169Z,94242.66
2023-10-10T22:13:30.638Z,94243.53
2023-10-10T22:15:58.737Z,94246.47
2023-10-10T22:18:26.877Z,94252.94
2023-10-10T22:20:57.498Z,94256.00
2023-10-10T22:23:27.855Z,94258.97
2023-10-10T22:26:03.064Z,94256.31
2023-10-10T22:28:33.084Z,94246.34
2023-10-10T22:31:01.092Z,94244.50
2023-10-10T22:33:31.248Z,94257.19
2023-10-10T22:36:02.138Z,94245.63
2023-10-10T22:38:30.239Z,94265.53
2023-10-10T22:40:59.265Z,94267.47
2023-10-10T22:43:27.658Z,94276.63
2023-10-10T22:45:55.747Z,94273.47
2023-10-10T22:48:23.987Z,94277.78
2023-10-10T22:50:54.570Z,94277.81
2023-10-10T22:53:22.677Z,94276.38
2023-10-10T22:55:50.563Z,94278.59
2023-10-10T22:58:21.766Z,94285.19
2023-10-10T23:00:49.999Z,94280.00
2023-10-10T23:03:20.887Z,94288.66
2023-10-10T23:05:49.168Z,94294.06
2023-10-10T23:08:17.487Z,94279.91
2023-10-10T23:10:49.503Z,94277.81
2023-10-10T23:13:18.023Z,94283.72
2023-10-10T23:15:50.265Z,94268.66
2023-10-10T23:18:18.988Z,94278.94
2023-10-10T23:20:47.662Z,94283.19
2023-10-10T23:23:17.480Z,94284.03
2023-10-10T23:25:48.655Z,94280.88
2023-10-10T23:28:16.681Z,94279.66
2023-10-10T23:30:44.732Z,94272.13
2023-10-10T23:33:14.235Z,94274.09
2023-10-10T23:35:42.854Z,94276.03
2023-10-10T23:38:12.111Z,94269.94
2023-10-10T23:40:40.992Z,94273.34
2023-10-10T23:43:10.456Z,94269.84
2023-10-10T23:45:44.527Z,94274.13
2023-10-10T23:48:17.273Z,94274.38
2023-10-10T23:50:46.774Z,94276.59
2023-10-10T23:53:15.468Z,94276.84
2023-10-10T23:55:48.383Z,94276.69
2023-10-10T23:58:17.004Z,94267.31
